createdAt,value
2022-08-02T00:00:59.647Z,99.90
2022-08-02T00:03:27.167Z,99.90
2022-08-02T00:05:55.015Z,99.90
2022-08-02T00:08:22.809Z,99.90
2022-08-02T00:10:50.763Z,99.90
2022-08-02T00:13:18.249Z,99.90
2022-08-02T00:15:45.788Z,99.90
2022-08-02T00:18:13.361Z,99.90
2022-08-02T00:20:41.289Z,99.90
2022-08-02T00:23:08.856Z,99.90
2022-08-02T00:25:36.582Z,99.90
2022-08-02T00:28:27.351Z,99.90
2022-08-02T00:30:56.750Z,99.90
2022-08-02T00:34:05.317Z,99.90
2022-08-02T00:36:12.783Z,99.90
2022-08-02T00:38:40.297Z,99.90
2022-08-02T00:41:12.077Z,99.90
2022-08-02T00:43:39.728Z,99.90
2022-08-02T00:46:07.373Z,99.90
2022-08-02T00:48:35.150Z,99.90
2022-08-02T00:51:03.276Z,99.90
2022-08-02T00:53:31.891Z,99.90
2022-08-02T00:55:59.547Z,99.90
2022-08-02T00:58:27.284Z,99.90
2022-08-02T01:00:56.809Z,99.90
2022-08-02T01:03:25.302Z,99.90
2022-08-02T01:06:02.361Z,99.90
2022-08-02T01:08:39.337Z,99.90
2022-08-02T01:11:07.712Z,99.90
2022-08-02T01:13:37.090Z,99.90
2022-08-02T01:16:09.261Z,99.90
2022-08-02T01:18:40.515Z,99.90
2022-08-02T01:21:29.077Z,99.90
2022-08-02T01:24:16.401Z,99.90
2022-08-02T01:26:49.182Z,99.90
2022-08-02T01:29:18.931Z,99.90
2022-08-02T01:31:54.426Z,99.90
2022-08-02T01:34:30.781Z,99.90
2022-08-02T01:37:01.050Z,99.90
2022-08-02T01:39:32.112Z,99.90
2022-08-02T01:42:00.854Z,99.90
2022-08-02T01:44:32.333Z,99.90
2022-08-02T01:47:01.700Z,99.90
2022-08-02T01:49:30.580Z,99.90
2022-08-02T01:52:18.710Z,99.90
2022-08-02T01:54:47.326Z,99.90
2022-08-02T01:57:16.401Z,99.90
2022-08-02T01:59:45.006Z,99.90
2022-08-02T02:02:14.951Z,99.90
2022-08-02T02:04:43.437Z,99.90
2022-08-02T02:07:12.283Z,99.90
2022-08-02T02:09:47.756Z,99.90
2022-08-02T02:12:20.563Z,99.90
2022-08-02T02:14:51.763Z,99.90
2022-08-02T02:17:52.964Z,99.90
2022-08-02T02:20:17.216Z,99.90
2022-08-02T02:22:45.393Z,99.90
2022-08-02T02:25:19.155Z,99.90
2022-08-02T02:28:24.399Z,99.90
2022-08-02T02:30:53.887Z,99.90
2022-08-02T02:33:26.294Z,99.90
2022-08-02T02:35:58.163Z,99.90
2022-08-02T02:38:28.834Z,99.90
2022-08-02T02:40:56.758Z,99.90
2022-08-02T02:43:25.805Z,99.90
2022-08-02T02:45:53.687Z,99.90
2022-08-02T02:48:21.560Z,99.90
2022-08-02T02:50:50.275Z,99.90
2022-08-02T02:53:19.944Z,99.90
2022-08-02T02:56:01.821Z,99.90
2022-08-02T02:58:32.282Z,99.90
2022-08-02T03:01:19.059Z,99.90
2022-08-02T03:03:47.295Z,99.90
2022-08-02T03:06:15.803Z,99.90
2022-08-02T03:08:44.214Z,99.90
2022-08-02T03:11:12.436Z,99.90
2022-08-02T03:13:40.338Z,99.90
2022-08-02T03:16:08.592Z,99.90
2022-08-02T03:18:36.978Z,99.90
2022-08-02T03:21:06.047Z,99.90
2022-08-02T03:23:33.903Z,99.90
2022-08-02T03:26:01.601Z,99.90
2022-08-02T03:28:29.638Z,99.90
2022-08-02T03:30:58.867Z,99.90
2022-08-02T03:33:27.157Z,99.90
2022-08-02T03:35:56.276Z,99.90
2022-08-02T03:38:26.924Z,99.90
2022-08-02T03:40:58.879Z,99.90
2022-08-02T03:43:28.779Z,99.90
2022-08-02T03:45:57.047Z,99.90
2022-08-02T03:48:33.883Z,99.90
2022-08-02T03:51:02.489Z,99.90
2022-08-02T03:53:30.405Z,99.90
2022-08-02T03:55:59.331Z,99.90
2022-08-02T03:58:28.272Z,99.90
2022-08-02T04:00:57.729Z,99.90
2022-08-02T04:03:25.703Z,99.90
2022-08-02T04:06:03.710Z,99.90
2022-08-02T04:08:37.986Z,99.90
2022-08-02T04:11:25.145Z,99.90
2022-08-02T04:13:54.125Z,99.90
2022-08-02T04:16:45.859Z,99.90
2022-08-02T04:19:34.495Z,99.90
2022-08-02T04:22:06.276Z,99.90
2022-08-02T04:24:41.598Z,99.90
2022-08-02T04:27:49.966Z,99.90
2022-08-02T04:29:58.010Z,99.90
2022-08-02T04:32:26.066Z,99.90
2022-08-02T04:35:18.147Z,99.90
2022-08-02T04:38:08.163Z,99.90
2022-08-02T04:40:29.490Z,99.90
2022-08-02T04:42:57.061Z,99.90
2022-08-02T04:45:25.435Z,99.90
2022-08-02T04:48:02.174Z,99.90
2022-08-02T04:50:31.906Z,99.90
2022-08-02T04:52:59.440Z,99.90
2022-08-02T04:55:29.427Z,99.90
2022-08-02T04:58:03.754Z,99.90
2022-08-02T05:00:34.278Z,99.90
2022-08-02T05:03:02.081Z,99.90
2022-08-02T05:05:29.686Z,99.90
2022-08-02T05:07:57.153Z,99.90
2022-08-02T05:10:24.781Z,99.90
2022-08-02T05:12:52.541Z,99.90
2022-08-02T05:15:20.400Z,99.90
2022-08-02T05:17:48.976Z,99.90
2022-08-02T05:20:18.694Z,99.90
2022-08-02T05:22:46.646Z,99.90
2022-08-02T05:25:14.495Z,99.90
2022-08-02T05:27:42.350Z,99.90
2022-08-02T05:30:10.690Z,99.90
2022-08-02T05:32:49.552Z,99.90
2022-08-02T05:35:22.366Z,99.90
2022-08-02T05:37:50.600Z,99.90
2022-08-02T05:40:26.040Z,99.90
2022-08-02T05:42:55.037Z,99.90
2022-08-02T05:45:23.554Z,99.90
2022-08-02T05:47:52.029Z,99.90
2022-08-02T05:50:20.211Z,99.90
2022-08-02T05:52:59.557Z,99.90
2022-08-02T05:55:33.987Z,99.90
2022-08-02T05:58:16.973Z,99.90
2022-08-02T06:00:45.411Z,99.90
2022-08-02T06:03:21.781Z,99.90
2022-08-02T06:06:08.644Z,99.90
2022-08-02T06:08:45.821Z,99.90
2022-08-02T06:11:17.412Z,99.90
2022-08-02T06:13:46.024Z,99.90
2022-08-02T06:16:14.167Z,99.90
2022-08-02T06:18:43.443Z,99.90
2022-08-02T06:22:30.597Z,99.90
2022-08-02T06:23:59.643Z,99.90
2022-08-02T06:26:28.173Z,99.90
2022-08-02T06:28:56.659Z,99.90
2022-08-02T06:31:24.709Z,99.90
2022-08-02T06:33:53.688Z,99.90
2022-08-02T06:36:50.815Z,99.90
2022-08-02T06:39:20.980Z,99.90
2022-08-02T06:41:49.640Z,99.90
2022-08-02T06:44:49.634Z,99.90
2022-08-02T06:47:13.643Z,99.90
2022-08-02T06:49:52.658Z,99.90
2022-08-02T06:52:29.772Z,99.90
2022-08-02T06:55:01.537Z,99.90
2022-08-02T06:57:29.832Z,99.90
2022-08-02T06:59:58.561Z,99.90
2022-08-02T07:02:26.254Z,99.90
2022-08-02T07:04:54.794Z,99.90
2022-08-02T07:07:22.587Z,99.90
2022-08-02T07:09:56.603Z,99.90
2022-08-02T07:12:32.994Z,99.90
2022-08-02T07:15:01.508Z,99.90
2022-08-02T07:17:29.790Z,99.90
2022-08-02T07:19:58.931Z,99.90
2022-08-02T07:22:27.632Z,99.90
2022-08-02T07:24:56.350Z,99.90
2022-08-02T07:27:24.688Z,99.90
2022-08-02T07:29:52.754Z,99.90
2022-08-02T07:32:21.844Z,98.90
2022-08-02T07:34:51.267Z,98.60
2022-08-02T07:37:54.230Z,98.50
2022-08-02T07:40:14.524Z,96.40
2022-08-02T07:42:43.989Z,97.70
2022-08-02T07:45:13.144Z,96.80
2022-08-02T07:47:41.824Z,98.80
2022-08-02T07:50:10.331Z,96.90
2022-08-02T07:52:38.202Z,98.20
2022-08-02T07:55:05.889Z,98.20
2022-08-02T07:57:33.687Z,95.30
2022-08-02T08:00:01.343Z,95.40
2022-08-02T08:02:39.428Z,98.70
2022-08-02T08:05:07.335Z,95.30
2022-08-02T08:07:35.182Z,99.80
2022-08-02T08:10:03.125Z,99.90
2022-08-02T08:12:30.639Z,99.90
2022-08-02T08:15:00.346Z,94.40
2022-08-02T08:17:28.286Z,93.30
2022-08-02T08:19:58.276Z,92.70
2022-08-02T08:22:25.897Z,91.80
2022-08-02T08:24:53.372Z,92.90
2022-08-02T08:27:22.712Z,93.60
2022-08-02T08:29:50.429Z,89.50
2022-08-02T08:32:18.967Z,93.70
2022-08-02T08:34:47.335Z,90.70
2022-08-02T08:37:16.775Z,91.70
2022-08-02T08:39:56.245Z,86.90
2022-08-02T08:42:30.889Z,73.00
2022-08-02T08:44:59.265Z,63.30
2022-08-02T08:47:37.704Z,46.40
2022-08-02T08:50:07.157Z,47.50
2022-08-02T08:52:36.421Z,44.30
2022-08-02T08:55:05.549Z,43.00
2022-08-02T08:57:35.427Z,42.30
2022-08-02T09:00:03.210Z,47.50
2022-08-02T09:02:33.230Z,45.80
2022-08-02T09:05:02.055Z,46.90
2022-08-02T09:07:30.763Z,38.50
2022-08-02T09:10:00.536Z,40.70
2022-08-02T09:12:28.024Z,39.80
2022-08-02T09:14:55.786Z,37.50
2022-08-02T09:17:23.415Z,35.50
2022-08-02T09:20:06.095Z,37.50
2022-08-02T09:22:34.847Z,37.50
2022-08-02T09:25:02.282Z,41.00
2022-08-02T09:27:35.781Z,41.60
2022-08-02T09:30:12.828Z,42.00
2022-08-02T09:32:45.866Z,44.70
2022-08-02T09:35:14.524Z,46.60
2022-08-02T09:37:45.626Z,41.70
2022-08-02T09:40:16.187Z,43.40
2022-08-02T09:42:58.389Z,41.60
2022-08-02T09:45:30.751Z,35.30
2022-08-02T09:47:58.490Z,34.30
2022-08-02T09:50:25.967Z,36.90
2022-08-02T09:52:55.325Z,34.20
2022-08-02T09:55:22.827Z,39.80
2022-08-02T09:57:51.475Z,34.60
2022-08-02T10:00:27.270Z,40.70
2022-08-02T10:03:12.997Z,39.90
2022-08-02T10:06:02.440Z,40.80
2022-08-02T10:08:37.194Z,44.80
2022-08-02T10:11:08.189Z,44.80
2022-08-02T10:13:40.600Z,40.60
2022-08-02T10:16:20.856Z,43.00
2022-08-02T10:18:49.984Z,46.30
2022-08-02T10:21:24.551Z,47.30
2022-08-02T10:27:22.799Z,43.60
2022-08-02T10:30:13.219Z,42.20
2022-08-02T10:32:50.915Z,41.40
2022-08-02T10:35:25.750Z,43.00
2022-08-02T10:37:59.700Z,47.60
2022-08-02T10:40:53.279Z,47.80
2022-08-02T10:43:34.633Z,46.20
2022-08-02T10:46:23.600Z,46.10
2022-08-02T10:52:10.459Z,48.10
2022-08-02T10:54:45.175Z,53.10
2022-08-02T10:57:32.302Z,49.20
2022-08-02T11:00:04.354Z,48.30
2022-08-02T11:02:37.525Z,49.20
2022-08-02T11:05:42.240Z,51.80
2022-08-02T11:07:58.032Z,52.20
2022-08-02T11:10:28.061Z,49.30
2022-08-02T11:13:10.072Z,51.60
2022-08-02T11:16:18.034Z,52.70
2022-08-02T11:18:54.381Z,52.10
2022-08-02T11:21:29.482Z,52.80
2022-08-02T11:24:15.763Z,51.50
2022-08-02T11:26:46.305Z,54.10
2022-08-02T11:30:01.573Z,51.80
2022-08-02T11:32:19.735Z,56.20
2022-08-02T11:34:51.260Z,52.00
2022-08-02T11:37:29.911Z,52.20
2022-08-02T11:39:59.497Z,50.10
2022-08-02T11:42:35.132Z,51.30
2022-08-02T11:45:04.731Z,48.00
2022-08-02T11:47:34.357Z,48.20
2022-08-02T11:50:11.470Z,49.50
2022-08-02T11:52:41.832Z,51.70
2022-08-02T11:55:21.161Z,47.40
2022-08-02T11:58:03.762Z,49.90
2022-08-02T12:00:37.055Z,49.50
2022-08-02T12:03:08.179Z,51.20
2022-08-02T12:06:05.515Z,51.70
2022-08-02T12:08:27.209Z,52.20
2022-08-02T12:10:56.943Z,49.50
2022-08-02T12:13:24.894Z,50.30
2022-08-02T12:15:53.153Z,51.40
2022-08-02T12:18:42.818Z,50.90
2022-08-02T12:21:25.638Z,51.90
2022-08-02T12:24:01.056Z,52.10
2022-08-02T12:26:30.789Z,51.20
2022-08-02T12:28:59.504Z,51.80
2022-08-02T12:31:57.635Z,52.30
2022-08-02T12:34:32.001Z,53.10
2022-08-02T12:37:02.286Z,51.70
2022-08-02T12:39:40.078Z,49.90
2022-08-02T12:42:10.638Z,51.60
2022-08-02T12:44:39.580Z,51.70
2022-08-02T12:47:10.864Z,54.30
2022-08-02T12:49:41.168Z,52.20
2022-08-02T12:52:24.969Z,53.00
2022-08-02T12:54:55.563Z,56.60
2022-08-02T12:57:23.541Z,54.10
2022-08-02T12:59:53.750Z,59.40
2022-08-02T13:02:23.404Z,55.40
2022-08-02T13:04:52.944Z,54.90
2022-08-02T13:07:22.571Z,57.40
2022-08-02T13:09:51.476Z,56.70
2022-08-02T13:12:31.800Z,57.10
2022-08-02T13:15:00.414Z,59.20
2022-08-02T13:17:32.078Z,53.00
2022-08-02T13:20:01.587Z,56.00
2022-08-02T13:22:32.210Z,55.10
2022-08-02T13:25:01.815Z,65.10
2022-08-02T13:27:31.222Z,63.90
2022-08-02T13:30:05.525Z,54.60
2022-08-02T13:32:34.593Z,53.90
2022-08-02T13:35:07.285Z,56.40
2022-08-02T13:37:45.830Z,57.40
2022-08-02T13:40:22.417Z,62.10
2022-08-02T13:42:51.090Z,58.80
2022-08-02T13:45:19.735Z,55.80
2022-08-02T13:48:04.720Z,59.80
2022-08-02T13:50:44.525Z,55.80
2022-08-02T13:53:12.726Z,59.10
2022-08-02T13:55:43.240Z,57.80
2022-08-02T13:58:13.778Z,58.20
2022-08-02T14:00:43.763Z,57.60
2022-08-02T14:03:15.308Z,62.00
2022-08-02T14:05:48.133Z,62.20
2022-08-02T14:08:24.292Z,59.90
2022-08-02T14:10:58.588Z,56.40
2022-08-02T14:13:36.206Z,58.80
2022-08-02T14:16:10.119Z,60.00
2022-08-02T14:18:41.435Z,58.20
2022-08-02T14:21:11.665Z,56.00
2022-08-02T14:23:49.013Z,57.40
2022-08-02T14:26:27.689Z,58.20
2022-08-02T14:28:57.823Z,63.40
2022-08-02T14:31:27.852Z,67.50
2022-08-02T14:33:56.444Z,67.00
2022-08-02T14:36:27.193Z,63.10
2022-08-02T14:40:00.010Z,61.20
2022-08-02T14:42:02.263Z,61.70
2022-08-02T14:44:37.528Z,60.00
2022-08-02T14:47:10.795Z,61.00
2022-08-02T14:50:02.581Z,60.80
2022-08-02T14:52:31.934Z,64.30
2022-08-02T14:55:03.539Z,72.00
2022-08-02T14:57:32.047Z,68.50
2022-08-02T15:00:04.547Z,75.00
2022-08-02T15:02:37.373Z,71.70
2022-08-02T15:05:05.771Z,76.50
2022-08-02T15:07:38.212Z,77.60
2022-08-02T15:10:10.166Z,79.50
2022-08-02T15:12:39.139Z,74.20
2022-08-02T15:15:07.424Z,70.80
2022-08-02T15:17:37.890Z,72.70
2022-08-02T15:20:24.445Z,69.50
2022-08-02T15:22:56.213Z,76.00
2022-08-02T15:25:52.005Z,72.60
2022-08-02T15:28:31.510Z,67.00
2022-08-02T15:30:59.508Z,68.30
2022-08-02T15:33:27.115Z,66.40
2022-08-02T15:35:54.756Z,65.90
2022-08-02T15:38:23.726Z,73.60
2022-08-02T15:40:51.581Z,71.30
2022-08-02T15:43:21.985Z,66.90
2022-08-02T15:45:49.606Z,71.90
2022-08-02T15:48:17.752Z,67.20
2022-08-02T15:50:45.329Z,69.20
2022-08-02T15:53:13.057Z,69.60
2022-08-02T15:56:04.296Z,69.80
2022-08-02T15:58:28.686Z,67.10
2022-08-02T16:00:56.805Z,70.50
2022-08-02T16:03:24.761Z,66.90
2022-08-02T16:05:52.639Z,67.40
2022-08-02T16:08:20.337Z,69.20
2022-08-02T16:10:48.060Z,76.40
2022-08-02T16:13:36.395Z,80.90
2022-08-02T16:16:08.209Z,86.70
2022-08-02T16:18:35.929Z,91.40
2022-08-02T16:21:03.732Z,95.40
2022-08-02T16:24:02.665Z,99.90
2022-08-02T16:26:18.731Z,99.90
2022-08-02T16:28:46.969Z,99.90
2022-08-02T16:31:14.601Z,99.90
2022-08-02T16:33:42.540Z,99.90
2022-08-02T16:36:13.645Z,99.90
2022-08-02T16:38:41.361Z,99.90
2022-08-02T16:41:09.041Z,99.90
2022-08-02T16:43:36.739Z,99.90
2022-08-02T16:46:04.282Z,99.90
2022-08-02T16:48:37.776Z,99.90
2022-08-02T16:51:13.887Z,99.90
2022-08-02T16:54:00.255Z,99.90
2022-08-02T16:56:29.251Z,99.90
2022-08-02T16:59:00.110Z,99.90
2022-08-02T17:01:28.471Z,99.90
2022-08-02T17:04:16.075Z,99.90
2022-08-02T17:06:47.644Z,99.90
2022-08-02T17:10:04.555Z,99.90
2022-08-02T17:12:16.090Z,99.90
2022-08-02T17:14:55.680Z,99.90
2022-08-02T17:17:34.226Z,99.90
2022-08-02T17:20:02.906Z,99.90
2022-08-02T17:22:30.978Z,99.90
2022-08-02T17:25:05.496Z,99.90
2022-08-02T17:27:38.639Z,99.90
2022-08-02T17:30:10.846Z,99.90
2022-08-02T17:32:38.870Z,99.90
2022-08-02T17:35:10.207Z,99.90
2022-08-02T17:37:41.773Z,99.90
2022-08-02T17:40:10.260Z,99.90
2022-08-02T17:42:39.702Z,99.90
2022-08-02T17:45:16.426Z,99.90
2022-08-02T17:48:04.567Z,99.90
2022-08-02T17:50:34.219Z,99.90
2022-08-02T17:53:02.669Z,99.90
2022-08-02T17:55:31.001Z,99.90
2022-08-02T17:57:59.811Z,99.90
2022-08-02T18:00:34.599Z,99.90
2022-08-02T18:03:06.147Z,99.90
2022-08-02T18:05:39.289Z,99.90
2022-08-02T18:08:09.613Z,99.90
2022-08-02T18:10:39.478Z,99.90
2022-08-02T18:13:07.093Z,99.90
2022-08-02T18:15:36.110Z,99.90
2022-08-02T18:18:03.813Z,99.90
2022-08-02T18:20:32.000Z,99.90
2022-08-02T18:23:00.141Z,99.90
2022-08-02T18:25:37.037Z,99.90
2022-08-02T18:28:12.893Z,99.90
2022-08-02T18:30:40.873Z,99.90
2022-08-02T18:33:55.550Z,99.90
2022-08-02T18:35:56.963Z,99.90
2022-08-02T18:38:27.820Z,99.90
2022-08-02T18:40:55.559Z,99.90
2022-08-02T18:43:25.314Z,99.90
2022-08-02T18:46:06.058Z,99.90
2022-08-02T18:48:44.160Z,99.90
2022-08-02T18:51:15.749Z,99.90
2022-08-02T18:53:44.196Z,99.90
2022-08-02T18:56:19.385Z,99.90
2022-08-02T18:58:48.733Z,99.90
2022-08-02T19:01:31.595Z,99.90
2022-08-02T19:04:02.690Z,99.90
2022-08-02T19:06:32.291Z,99.90
2022-08-02T19:09:11.100Z,99.90
2022-08-02T19:11:48.320Z,99.90
2022-08-02T19:14:27.192Z,99.90
2022-08-02T19:17:00.279Z,99.90
2022-08-02T19:19:44.516Z,99.90
2022-08-02T19:22:26.684Z,99.90
2022-08-02T19:25:00.115Z,99.90
2022-08-02T19:27:32.690Z,99.90
2022-08-02T19:30:02.724Z,99.90
2022-08-02T19:32:41.337Z,99.90
2022-08-02T19:35:29.740Z,99.90
2022-08-02T19:38:09.499Z,99.90
2022-08-02T19:40:39.875Z,99.90
2022-08-02T19:44:24.050Z,99.90
2022-08-02T19:45:56.859Z,99.90
2022-08-02T19:48:26.960Z,99.90
2022-08-02T19:51:00.670Z,99.90
2022-08-02T19:53:47.680Z,99.90
2022-08-02T19:59:13.418Z,99.90
2022-08-02T20:01:48.510Z,99.90
2022-08-02T20:04:22.999Z,99.90
2022-08-02T20:06:52.153Z,99.90
2022-08-02T20:09:21.260Z,99.90
2022-08-02T20:11:54.031Z,99.90
2022-08-02T20:14:26.605Z,99.90
2022-08-02T20:16:56.903Z,99.90
2022-08-02T20:19:25.388Z,99.90
2022-08-02T20:22:00.115Z,99.90
2022-08-02T20:24:30.237Z,99.90
2022-08-02T20:26:59.508Z,99.90
2022-08-02T20:29:42.781Z,99.90
2022-08-02T20:32:22.814Z,99.90
2022-08-02T20:34:52.427Z,99.90
2022-08-02T20:37:59.580Z,99.90
2022-08-02T20:40:09.130Z,99.90
2022-08-02T20:42:36.714Z,99.90
2022-08-02T20:45:05.193Z,99.90
2022-08-02T20:47:39.368Z,99.90
2022-08-02T20:50:30.735Z,99.90
2022-08-02T20:53:00.944Z,99.90
2022-08-02T20:55:30.778Z,99.90
2022-08-02T20:58:01.450Z,99.90
2022-08-02T21:00:30.537Z,99.90
2022-08-02T21:05:54.865Z,99.90
2022-08-02T21:08:24.138Z,99.90
2022-08-02T21:10:55.285Z,99.90
2022-08-02T21:13:26.162Z,99.90
2022-08-02T21:15:57.764Z,99.90
2022-08-02T21:18:38.100Z,99.90
2022-08-02T21:21:08.680Z,99.90
2022-08-02T21:23:36.967Z,99.90
2022-08-02T21:26:06.848Z,99.90
2022-08-02T21:28:44.137Z,99.90
2022-08-02T21:31:15.069Z,99.90
2022-08-02T21:33:56.878Z,99.90
2022-08-02T21:36:31.301Z,99.90
2022-08-02T21:39:04.812Z,99.90
2022-08-02T21:41:39.852Z,99.90
2022-08-02T21:44:15.900Z,99.90
2022-08-02T21:46:45.267Z,99.90
2022-08-02T21:49:14.278Z,99.90
2022-08-02T21:51:42.731Z,99.90
2022-08-02T21:54:17.984Z,99.90
2022-08-02T21:56:52.073Z,99.90
2022-08-02T21:59:25.421Z,99.90
2022-08-02T22:01:56.489Z,99.90
2022-08-02T22:04:27.894Z,99.90
2022-08-02T22:06:56.067Z,99.90
2022-08-02T22:09:42.359Z,99.90
2022-08-02T22:12:18.039Z,99.90
2022-08-02T22:14:54.645Z,99.90
2022-08-02T22:17:51.094Z,99.90
2022-08-02T22:20:18.250Z,99.90
2022-08-02T22:23:04.110Z,99.90
2022-08-02T22:25:40.731Z,99.90
2022-08-02T22:28:35.861Z,99.90
2022-08-02T22:30:58.122Z,99.90
2022-08-02T22:33:47.287Z,99.90
2022-08-02T22:36:28.904Z,99.90
2022-08-02T22:38:56.460Z,99.90
2022-08-02T22:41:24.336Z,99.90
2022-08-02T22:43:52.141Z,99.90
2022-08-02T22:46:19.972Z,99.90
2022-08-02T22:48:54.478Z,99.90
2022-08-02T22:51:22.031Z,99.90
2022-08-02T22:53:49.590Z,99.90
2022-08-02T22:56:17.523Z,99.90
2022-08-02T22:58:54.018Z,99.90
2022-08-02T22:58:56.834Z,99.90
2022-08-02T23:01:32.917Z,99.90
2022-08-02T23:04:00.455Z,99.90
2022-08-02T23:06:28.043Z,99.90
2022-08-02T23:08:55.695Z,99.90
2022-08-02T23:11:24.065Z,99.90
2022-08-02T23:13:51.677Z,99.90
2022-08-02T23:16:38.427Z,99.90
2022-08-02T23:19:24.750Z,99.90
2022-08-02T23:22:02.387Z,99.90
2022-08-02T23:24:33.758Z,99.90
2022-08-02T23:27:01.609Z,99.90
2022-08-02T23:29:29.325Z,99.90
2022-08-02T23:31:56.841Z,99.90
2022-08-02T23:34:26.919Z,99.90
2022-08-02T23:36:54.695Z,99.90
2022-08-02T23:39:22.442Z,99.90
2022-08-02T23:41:55.351Z,99.90
2022-08-02T23:44:27.013Z,99.90
2022-08-02T23:46:55.347Z,99.90
2022-08-02T23:49:23.530Z,99.90
2022-08-02T23:51:51.680Z,99.90
2022-08-02T23:54:19.890Z,99.90
2022-08-02T23:56:47.493Z,99.90
2022-08-02T23:59:15.282Z,99.90
